sensor_id;sensor_type;location;lat;lon;timestamp;temperature;humidity
21778;DHT22;11050;52.222;20.916;2023-10-09T00:02:08;2.60;99.90
21778;DHT22;11050;52.222;20.916;2023-10-09T00:04:35;2.60;99.90
21778;DHT22;11050;52.222;20.916;2023-10-09T00:07:07;2.60;99.90
21778;DHT22;11050;52.222;20.916;2023-10-09T00:09:34;2.60;99.90
21778;DHT22;11050;52.222;20.916;2023-10-09T00:12:16;2.60;99.90
21778;DHT22;11050;52.222;20.916;2023-10-09T00:14:48;2.60;99.90
21778;DHT22;11050;52.222;20.916;2023-10-09T00:17:16;2.60;99.90
21778;DHT22;11050;52.222;20.916;2023-10-09T00:19:46;2.60;99.90
21778;DHT22;11050;52.222;20.916;2023-10-09T00:22:25;2.60;99.90
21778;DHT22;11050;52.222;20.916;2023-10-09T00:24:54;2.70;99.90
21778;DHT22;11050;52.222;20.916;2023-10-09T00:27:38;2.60;99.90
21778;DHT22;11050;52.222;20.916;2023-10-09T00:30:08;2.60;99.90
21778;DHT22;11050;52.222;20.916;2023-10-09T00:32:47;2.60;99.90
21778;DHT22;11050;52.222;20.916;2023-10-09T00:35:29;2.70;99.90
21778;DHT22;11050;52.222;20.916;2023-10-09T00:38:06;2.70;99.90
21778;DHT22;11050;52.222;20.916;2023-10-09T00:40:48;2.70;99.90
21778;DHT22;11050;52.222;20.916;2023-10-09T00:43:22;2.70;99.90
21778;DHT22;11050;52.222;20.916;2023-10-09T00:45:57;2.70;99.90
21778;DHT22;11050;52.222;20.916;2023-10-09T00:48:52;2.70;99.90
21778;DHT22;11050;52.222;20.916;2023-10-09T00:51:19;2.60;99.90
21778;DHT22;11050;52.222;20.916;2023-10-09T00:53:49;2.70;99.90
21778;DHT22;11050;52.222;20.916;2023-10-09T00:56:23;2.70;99.90
21778;DHT22;11050;52.222;20.916;2023-10-09T00:58:59;2.60;99.90
21778;DHT22;11050;52.222;20.916;2023-10-09T01:01:37;2.70;99.90
21778;DHT22;11050;52.222;20.916;2023-10-09T01:04:10;2.60;99.90
21778;DHT22;11050;52.222;20.916;2023-10-09T01:06:40;2.60;99.90
21778;DHT22;11050;52.222;20.916;2023-10-09T01:09:14;2.60;99.90
21778;DHT22;11050;52.222;20.916;2023-10-09T01:11:41;2.60;99.90
21778;DHT22;11050;52.222;20.916;2023-10-09T01:14:33;2.60;99.90
21778;DHT22;11050;52.222;20.916;2023-10-09T01:17:04;2.60;99.90
21778;DHT22;11050;52.222;20.916;2023-10-09T01:19:34;2.60;99.90
21778;DHT22;11050;52.222;20.916;2023-10-09T01:22:01;2.60;99.90
21778;DHT22;11050;52.222;20.916;2023-10-09T01:24:38;2.60;99.90
21778;DHT22;11050;52.222;20.916;2023-10-09T01:27:05;2.60;99.90
21778;DHT22;11050;52.222;20.916;2023-10-09T01:29:40;2.60;99.90
21778;DHT22;11050;52.222;20.916;2023-10-09T01:32:07;2.60;99.90
21778;DHT22;11050;52.222;20.916;2023-10-09T01:34:42;2.70;99.90
21778;DHT22;11050;52.222;20.916;2023-10-09T01:37:10;2.60;99.90
21778;DHT22;11050;52.222;20.916;2023-10-09T01:39:46;2.70;99.90
21778;DHT22;11050;52.222;20.916;2023-10-09T01:42:14;2.70;99.90
21778;DHT22;11050;52.222;20.916;2023-10-09T01:44:50;2.70;99.90
21778;DHT22;11050;52.222;20.916;2023-10-09T01:47:17;2.70;99.90
21778;DHT22;11050;52.222;20.916;2023-10-09T01:49:45;2.70;99.90
21778;DHT22;11050;52.222;20.916;2023-10-09T01:52:15;2.70;99.90
21778;DHT22;11050;52.222;20.916;2023-10-09T01:54:45;2.80;99.90
21778;DHT22;11050;52.222;20.916;2023-10-09T01:57:15;2.80;99.90
21778;DHT22;11050;52.222;20.916;2023-10-09T01:59:49;2.80;99.90
21778;DHT22;11050;52.222;20.916;2023-10-09T02:02:19;2.80;99.90
21778;DHT22;11050;52.222;20.916;2023-10-09T02:05:11;2.90;99.90
21778;DHT22;11050;52.222;20.916;2023-10-09T02:07:40;2.90;99.90
21778;DHT22;11050;52.222;20.916;2023-10-09T02:10:11;2.90;99.90
21778;DHT22;11050;52.222;20.916;2023-10-09T02:12:56;2.90;99.90
21778;DHT22;11050;52.222;20.916;2023-10-09T02:15:27;2.90;99.90
21778;DHT22;11050;52.222;20.916;2023-10-09T02:18:10;3.00;99.90
21778;DHT22;11050;52.222;20.916;2023-10-09T02:20:50;3.00;99.90
21778;DHT22;11050;52.222;20.916;2023-10-09T02:23:53;3.00;99.90
21778;DHT22;11050;52.222;20.916;2023-10-09T02:26:22;3.00;99.90
21778;DHT22;11050;52.222;20.916;2023-10-09T02:28:53;3.00;99.90
21778;DHT22;11050;52.222;20.916;2023-10-09T02:31:26;3.00;99.90
21778;DHT22;11050;52.222;20.916;2023-10-09T02:34:01;3.00;99.90
21778;DHT22;11050;52.222;20.916;2023-10-09T02:36:31;3.00;99.90
21778;DHT22;11050;52.222;20.916;2023-10-09T02:38:57;3.10;99.90
21778;DHT22;11050;52.222;20.916;2023-10-09T02:41:22;3.00;99.90
21778;DHT22;11050;52.222;20.916;2023-10-09T02:43:53;3.10;99.90
21778;DHT22;11050;52.222;20.916;2023-10-09T02:46:21;3.10;99.90
21778;DHT22;11050;52.222;20.916;2023-10-09T02:48:57;3.10;99.90
21778;DHT22;11050;52.222;20.916;2023-10-09T02:51:41;3.10;99.90
21778;DHT22;11050;52.222;20.916;2023-10-09T02:54:08;3.10;99.90
21778;DHT22;11050;52.222;20.916;2023-10-09T02:56:50;3.10;99.90
21778;DHT22;11050;52.222;20.916;2023-10-09T02:59:43;3.20;99.90
21778;DHT22;11050;52.222;20.916;2023-10-09T03:02:10;3.20;99.90
21778;DHT22;11050;52.222;20.916;2023-10-09T03:04:36;3.20;99.90
21778;DHT22;11050;52.222;20.916;2023-10-09T03:07:04;3.20;99.90
21778;DHT22;11050;52.222;20.916;2023-10-09T03:09:31;3.20;99.90
21778;DHT22;11050;52.222;20.916;2023-10-09T03:12:03;3.20;99.90
21778;DHT22;11050;52.222;20.916;2023-10-09T03:14:34;3.20;99.90
21778;DHT22;11050;52.222;20.916;2023-10-09T03:17:04;3.20;99.90
21778;DHT22;11050;52.222;20.916;2023-10-09T03:19:31;3.30;99.90
21778;DHT22;11050;52.222;20.916;2023-10-09T03:22:07;3.30;99.90
21778;DHT22;11050;52.222;20.916;2023-10-09T03:24:36;3.30;99.90
21778;DHT22;11050;52.222;20.916;2023-10-09T03:27:03;3.30;99.90
21778;DHT22;11050;52.222;20.916;2023-10-09T03:29:29;3.30;99.90
21778;DHT22;11050;52.222;20.916;2023-10-09T03:31:55;3.30;99.90
21778;DHT22;11050;52.222;20.916;2023-10-09T03:34:22;3.30;99.90
21778;DHT22;11050;52.222;20.916;2023-10-09T03:36:49;3.30;99.90
21778;DHT22;11050;52.222;20.916;2023-10-09T03:39:32;3.30;99.90
21778;DHT22;11050;52.222;20.916;2023-10-09T03:42:01;3.30;99.90
21778;DHT22;11050;52.222;20.916;2023-10-09T03:44:34;3.30;99.90
21778;DHT22;11050;52.222;20.916;2023-10-09T03:47:06;3.30;99.90
21778;DHT22;11050;52.222;20.916;2023-10-09T03:49:35;3.30;99.90
21778;DHT22;11050;52.222;20.916;2023-10-09T03:52:04;3.40;99.90
21778;DHT22;11050;52.222;20.916;2023-10-09T03:54:32;3.40;99.90
21778;DHT22;11050;52.222;20.916;2023-10-09T03:57:00;3.40;99.90
21778;DHT22;11050;52.222;20.916;2023-10-09T03:59:28;3.40;99.90
21778;DHT22;11050;52.222;20.916;2023-10-09T04:01:57;3.40;99.90
21778;DHT22;11050;52.222;20.916;2023-10-09T04:04:24;3.40;99.90
21778;DHT22;11050;52.222;20.916;2023-10-09T04:06:51;3.50;99.90
21778;DHT22;11050;52.222;20.916;2023-10-09T04:09:19;3.50;99.90
21778;DHT22;11050;52.222;20.916;2023-10-09T04:11:55;3.50;99.90
21778;DHT22;11050;52.222;20.916;2023-10-09T04:14:40;3.50;99.90
21778;DHT22;11050;52.222;20.916;2023-10-09T04:17:20;3.50;99.90
21778;DHT22;11050;52.222;20.916;2023-10-09T04:19:59;3.60;99.90
21778;DHT22;11050;52.222;20.916;2023-10-09T04:22:44;3.60;99.90
21778;DHT22;11050;52.222;20.916;2023-10-09T04:25:17;3.60;99.90
21778;DHT22;11050;52.222;20.916;2023-10-09T04:28:11;3.60;99.90
21778;DHT22;11050;52.222;20.916;2023-10-09T04:30:45;3.60;99.90
21778;DHT22;11050;52.222;20.916;2023-10-09T04:33:21;3.60;99.90
21778;DHT22;11050;52.222;20.916;2023-10-09T04:36:08;3.70;99.90
21778;DHT22;11050;52.222;20.916;2023-10-09T04:38:48;3.70;99.90
21778;DHT22;11050;52.222;20.916;2023-10-09T04:41:30;3.70;99.90
21778;DHT22;11050;52.222;20.916;2023-10-09T04:44:20;3.70;99.90
21778;DHT22;11050;52.222;20.916;2023-10-09T04:46:51;3.70;99.90
21778;DHT22;11050;52.222;20.916;2023-10-09T04:49:37;3.70;99.90
21778;DHT22;11050;52.222;20.916;2023-10-09T04:52:28;3.80;99.90
21778;DHT22;11050;52.222;20.916;2023-10-09T04:54:54;3.80;99.90
21778;DHT22;11050;52.222;20.916;2023-10-09T04:57:32;3.80;99.90
21778;DHT22;11050;52.222;20.916;2023-10-09T05:00:15;3.80;99.90
21778;DHT22;11050;52.222;20.916;2023-10-09T05:02:54;3.80;99.90
21778;DHT22;11050;52.222;20.916;2023-10-09T05:05:25;3.80;99.90
21778;DHT22;11050;52.222;20.916;2023-10-09T05:08:15;3.90;99.90
21778;DHT22;11050;52.222;20.916;2023-10-09T05:10:59;3.90;99.90
21778;DHT22;11050;52.222;20.916;2023-10-09T05:16:07;3.90;99.90
21778;DHT22;11050;52.222;20.916;2023-10-09T05:18:57;3.90;99.90
21778;DHT22;11050;52.222;20.916;2023-10-09T05:21:26;3.90;99.90
21778;DHT22;11050;52.222;20.916;2023-10-09T05:23:56;3.90;99.90
21778;DHT22;11050;52.222;20.916;2023-10-09T05:26:39;3.90;99.90
21778;DHT22;11050;52.222;20.916;2023-10-09T05:31:48;4.00;99.90
21778;DHT22;11050;52.222;20.916;2023-10-09T05:34:33;4.00;99.90
21778;DHT22;11050;52.222;20.916;2023-10-09T05:37:06;4.10;99.90
21778;DHT22;11050;52.222;20.916;2023-10-09T05:39:54;4.10;99.90
21778;DHT22;11050;52.222;20.916;2023-10-09T05:42:34;4.20;99.90
21778;DHT22;11050;52.222;20.916;2023-10-09T05:45:18;4.20;99.90
21778;DHT22;11050;52.222;20.916;2023-10-09T05:47:51;4.20;99.90
21778;DHT22;11050;52.222;20.916;2023-10-09T05:50:37;4.30;99.90
21778;DHT22;11050;52.222;20.916;2023-10-09T05:53:21;4.30;99.90
21778;DHT22;11050;52.222;20.916;2023-10-09T05:56:06;4.40;99.90
21778;DHT22;11050;52.222;20.916;2023-10-09T05:58:50;4.40;99.90
21778;DHT22;11050;52.222;20.916;2023-10-09T06:01:34;4.40;99.90
21778;DHT22;11050;52.222;20.916;2023-10-09T06:04:18;4.50;99.90
21778;DHT22;11050;52.222;20.916;2023-10-09T06:06:46;4.50;99.90
21778;DHT22;11050;52.222;20.916;2023-10-09T06:09:13;4.50;99.90
21778;DHT22;11050;52.222;20.916;2023-10-09T06:11:47;4.60;99.90
21778;DHT22;11050;52.222;20.916;2023-10-09T06:14:19;4.70;99.90
21778;DHT22;11050;52.222;20.916;2023-10-09T06:17:12;4.70;99.90
21778;DHT22;11050;52.222;20.916;2023-10-09T06:19:51;4.80;99.90
21778;DHT22;11050;52.222;20.916;2023-10-09T06:22:24;4.80;99.90
21778;DHT22;11050;52.222;20.916;2023-10-09T06:25:10;4.90;99.90
21778;DHT22;11050;52.222;20.916;2023-10-09T06:27:37;4.90;99.90
21778;DHT22;11050;52.222;20.916;2023-10-09T06:30:12;5.00;99.90
21778;DHT22;11050;52.222;20.916;2023-10-09T06:32:49;5.00;99.90
21778;DHT22;11050;52.222;20.916;2023-10-09T06:35:45;5.10;99.90
21778;DHT22;11050;52.222;20.916;2023-10-09T06:38:19;5.10;99.90
21778;DHT22;11050;52.222;20.916;2023-10-09T06:40:50;5.20;99.90
21778;DHT22;11050;52.222;20.916;2023-10-09T06:43:20;5.30;99.90
21778;DHT22;11050;52.222;20.916;2023-10-09T06:45:48;5.30;99.90
21778;DHT22;11050;52.222;20.916;2023-10-09T06:48:21;5.30;99.90
21778;DHT22;11050;52.222;20.916;2023-10-09T06:51:11;5.40;99.90
21778;DHT22;11050;52.222;20.916;2023-10-09T06:53:44;5.40;99.90
21778;DHT22;11050;52.222;20.916;2023-10-09T06:56:22;5.40;99.90
21778;DHT22;11050;52.222;20.916;2023-10-09T06:59:05;5.50;99.90
21778;DHT22;11050;52.222;20.916;2023-10-09T07:01:51;5.60;99.90
21778;DHT22;11050;52.222;20.916;2023-10-09T07:04:36;5.70;99.90
21778;DHT22;11050;52.222;20.916;2023-10-09T07:07:02;5.80;99.90
21778;DHT22;11050;52.222;20.916;2023-10-09T07:09:33;5.90;99.90
21778;DHT22;11050;52.222;20.916;2023-10-09T07:12:11;6.00;99.90
21778;DHT22;11050;52.222;20.916;2023-10-09T07:14:46;6.10;99.90
21778;DHT22;11050;52.222;20.916;2023-10-09T07:17:12;6.20;99.90
21778;DHT22;11050;52.222;20.916;2023-10-09T07:19:44;6.30;99.90
21778;DHT22;11050;52.222;20.916;2023-10-09T07:22:13;6.40;99.90
21778;DHT22;11050;52.222;20.916;2023-10-09T07:24:49;6.50;99.90
21778;DHT22;11050;52.222;20.916;2023-10-09T07:27:30;6.60;99.90
21778;DHT22;11050;52.222;20.916;2023-10-09T07:30:21;6.70;99.90
21778;DHT22;11050;52.222;20.916;2023-10-09T07:32:56;6.90;99.90
21778;DHT22;11050;52.222;20.916;2023-10-09T07:35:34;7.10;99.90
21778;DHT22;11050;52.222;20.916;2023-10-09T07:38:24;7.30;99.90
21778;DHT22;11050;52.222;20.916;2023-10-09T07:40:55;7.40;99.90
21778;DHT22;11050;52.222;20.916;2023-10-09T07:43:26;7.60;99.90
21778;DHT22;11050;52.222;20.916;2023-10-09T07:46:09;7.70;99.90
21778;DHT22;11050;52.222;20.916;2023-10-09T07:48:57;7.80;99.90
21778;DHT22;11050;52.222;20.916;2023-10-09T07:51:26;7.90;99.90
21778;DHT22;11050;52.222;20.916;2023-10-09T07:53:59;7.90;99.90
21778;DHT22;11050;52.222;20.916;2023-10-09T07:56:39;8.00;99.90
21778;DHT22;11050;52.222;20.916;2023-10-09T07:59:15;8.10;99.90
21778;DHT22;11050;52.222;20.916;2023-10-09T08:01:44;8.10;99.90
21778;DHT22;11050;52.222;20.916;2023-10-09T08:04:21;8.30;99.90
21778;DHT22;11050;52.222;20.916;2023-10-09T08:07:10;8.40;99.90
21778;DHT22;11050;52.222;20.916;2023-10-09T08:09:48;8.50;99.90
21778;DHT22;11050;52.222;20.916;2023-10-09T08:12:17;8.60;99.90
21778;DHT22;11050;52.222;20.916;2023-10-09T08:15:06;8.70;99.90
21778;DHT22;11050;52.222;20.916;2023-10-09T08:18:02;8.80;99.90
21778;DHT22;11050;52.222;20.916;2023-10-09T08:20:44;8.90;99.90
21778;DHT22;11050;52.222;20.916;2023-10-09T08:23:25;9.00;99.90
21778;DHT22;11050;52.222;20.916;2023-10-09T08:26:14;9.10;99.90
21778;DHT22;11050;52.222;20.916;2023-10-09T08:28:54;9.10;99.90
21778;DHT22;11050;52.222;20.916;2023-10-09T08:31:40;9.20;99.90
21778;DHT22;11050;52.222;20.916;2023-10-09T08:34:14;9.20;99.90
21778;DHT22;11050;52.222;20.916;2023-10-09T08:36:51;9.30;99.90
21778;DHT22;11050;52.222;20.916;2023-10-09T08:39:21;9.40;99.90
21778;DHT22;11050;52.222;20.916;2023-10-09T08:41:58;9.50;99.90
21778;DHT22;11050;52.222;20.916;2023-10-09T08:44:26;9.60;99.90
21778;DHT22;11050;52.222;20.916;2023-10-09T08:46:55;9.70;99.90
21778;DHT22;11050;52.222;20.916;2023-10-09T08:49:23;9.80;99.90
21778;DHT22;11050;52.222;20.916;2023-10-09T08:51:51;9.90;99.90
21778;DHT22;11050;52.222;20.916;2023-10-09T08:54:18;9.90;99.90
21778;DHT22;11050;52.222;20.916;2023-10-09T08:56:47;10.00;99.90
21778;DHT22;11050;52.222;20.916;2023-10-09T08:59:17;10.10;99.90
21778;DHT22;11050;52.222;20.916;2023-10-09T09:01:48;10.10;99.30
21778;DHT22;11050;52.222;20.916;2023-10-09T09:04:39;10.20;99.50
21778;DHT22;11050;52.222;20.916;2023-10-09T09:07:21;10.30;99.40
21778;DHT22;11050;52.222;20.916;2023-10-09T09:09:56;10.40;98.20
21778;DHT22;11050;52.222;20.916;2023-10-09T09:12:24;10.50;98.40
21778;DHT22;11050;52.222;20.916;2023-10-09T09:14:50;10.60;97.60
21778;DHT22;11050;52.222;20.916;2023-10-09T09:17:23;10.80;97.40
21778;DHT22;11050;52.222;20.916;2023-10-09T09:19:53;10.90;96.90
21778;DHT22;11050;52.222;20.916;2023-10-09T09:22:19;11.00;96.80
21778;DHT22;11050;52.222;20.916;2023-10-09T09:24:58;11.10;95.30
21778;DHT22;11050;52.222;20.916;2023-10-09T09:27:44;11.20;94.30
21778;DHT22;11050;52.222;20.916;2023-10-09T09:30:33;11.30;93.50
21778;DHT22;11050;52.222;20.916;2023-10-09T09:33:24;11.30;93.40
21778;DHT22;11050;52.222;20.916;2023-10-09T09:35:59;11.40;92.30
21778;DHT22;11050;52.222;20.916;2023-10-09T09:38:29;11.30;91.60
21778;DHT22;11050;52.222;20.916;2023-10-09T09:41:16;11.40;91.00
21778;DHT22;11050;52.222;20.916;2023-10-09T09:43:58;11.40;90.00
21778;DHT22;11050;52.222;20.916;2023-10-09T09:46:32;11.50;88.80
21778;DHT22;11050;52.222;20.916;2023-10-09T09:49:03;11.50;87.90
21778;DHT22;11050;52.222;20.916;2023-10-09T09:51:45;11.60;87.20
21778;DHT22;11050;52.222;20.916;2023-10-09T09:54:15;11.70;86.00
21778;DHT22;11050;52.222;20.916;2023-10-09T09:56:44;11.80;84.20
21778;DHT22;11050;52.222;20.916;2023-10-09T09:59:25;11.90;82.50
21778;DHT22;11050;52.222;20.916;2023-10-09T10:01:56;12.00;82.20
21778;DHT22;11050;52.222;20.916;2023-10-09T10:04:32;12.00;78.50
21778;DHT22;11050;52.222;20.916;2023-10-09T10:07:02;12.00;77.70
21778;DHT22;11050;52.222;20.916;2023-10-09T10:09:41;12.10;77.90
21778;DHT22;11050;52.222;20.916;2023-10-09T10:12:14;12.10;78.50
21778;DHT22;11050;52.222;20.916;2023-10-09T10:14:56;12.10;78.80
21778;DHT22;11050;52.222;20.916;2023-10-09T10:18:06;12.20;78.30
21778;DHT22;11050;52.222;20.916;2023-10-09T10:21:10;12.20;78.00
21778;DHT22;11050;52.222;20.916;2023-10-09T10:23:42;12.20;77.40
21778;DHT22;11050;52.222;20.916;2023-10-09T10:26:22;12.20;76.00
21778;DHT22;11050;52.222;20.916;2023-10-09T10:29:14;12.10;74.60
21778;DHT22;11050;52.222;20.916;2023-10-09T10:32:02;12.10;74.90
21778;DHT22;11050;52.222;20.916;2023-10-09T10:34:52;12.00;75.30
21778;DHT22;11050;52.222;20.916;2023-10-09T10:37:35;12.00;75.20
21778;DHT22;11050;52.222;20.916;2023-10-09T10:40:09;12.00;75.40
21778;DHT22;11050;52.222;20.916;2023-10-09T10:42:50;11.90;74.40
21778;DHT22;11050;52.222;20.916;2023-10-09T10:45:38;11.80;75.50
21778;DHT22;11050;52.222;20.916;2023-10-09T10:48:10;11.70;74.50
21778;DHT22;11050;52.222;20.916;2023-10-09T10:50:57;11.60;75.50
21778;DHT22;11050;52.222;20.916;2023-10-09T10:53:23;11.60;75.00
21778;DHT22;11050;52.222;20.916;2023-10-09T10:56:03;11.50;76.20
21778;DHT22;11050;52.222;20.916;2023-10-09T10:58:38;11.40;76.10
21778;DHT22;11050;52.222;20.916;2023-10-09T11:01:04;11.30;76.50
21778;DHT22;11050;52.222;20.916;2023-10-09T11:03:41;11.20;76.20
21778;DHT22;11050;52.222;20.916;2023-10-09T11:06:25;11.20;76.00
21778;DHT22;11050;52.222;20.916;2023-10-09T11:09:06;11.10;76.50
21778;DHT22;11050;52.222;20.916;2023-10-09T11:11:51;11.00;76.10
21778;DHT22;11050;52.222;20.916;2023-10-09T11:14:48;10.90;76.70
21778;DHT22;11050;52.222;20.916;2023-10-09T11:17:35;10.80;77.40
21778;DHT22;11050;52.222;20.916;2023-10-09T11:20:05;10.70;78.60
21778;DHT22;11050;52.222;20.916;2023-10-09T11:22:51;10.70;79.70
21778;DHT22;11050;52.222;20.916;2023-10-09T11:25:39;10.70;81.30
21778;DHT22;11050;52.222;20.916;2023-10-09T11:28:19;10.70;81.80
21778;DHT22;11050;52.222;20.916;2023-10-09T11:31:13;10.70;82.30
21778;DHT22;11050;52.222;20.916;2023-10-09T11:33:43;10.80;83.70
21778;DHT22;11050;52.222;20.916;2023-10-09T11:36:10;10.90;84.20
21778;DHT22;11050;52.222;20.916;2023-10-09T11:38:37;10.90;85.20
21778;DHT22;11050;52.222;20.916;2023-10-09T11:41:16;11.00;85.70
21778;DHT22;11050;52.222;20.916;2023-10-09T11:43:53;11.00;85.80
21778;DHT22;11050;52.222;20.916;2023-10-09T11:46:23;11.00;86.80
21778;DHT22;11050;52.222;20.916;2023-10-09T11:49:09;11.00;88.20
21778;DHT22;11050;52.222;20.916;2023-10-09T11:51:53;11.00;88.80
21778;DHT22;11050;52.222;20.916;2023-10-09T11:54:39;11.10;89.50
21778;DHT22;11050;52.222;20.916;2023-10-09T11:57:05;11.10;90.00
21778;DHT22;11050;52.222;20.916;2023-10-09T11:59:31;11.10;90.60
21778;DHT22;11050;52.222;20.916;2023-10-09T12:02:07;11.10;90.70
21778;DHT22;11050;52.222;20.916;2023-10-09T12:04:41;11.10;91.10
21778;DHT22;11050;52.222;20.916;2023-10-09T12:07:10;11.00;91.40
21778;DHT22;11050;52.222;20.916;2023-10-09T12:09:36;11.00;92.10
21778;DHT22;11050;52.222;20.916;2023-10-09T12:12:07;10.90;92.40
21778;DHT22;11050;52.222;20.916;2023-10-09T12:14:36;10.90;92.90
21778;DHT22;11050;52.222;20.916;2023-10-09T12:17:09;10.80;93.40
21778;DHT22;11050;52.222;20.916;2023-10-09T12:19:38;10.80;93.70
21778;DHT22;11050;52.222;20.916;2023-10-09T12:22:06;10.70;94.00
21778;DHT22;11050;52.222;20.916;2023-10-09T12:24:36;10.70;94.40
21778;DHT22;11050;52.222;20.916;2023-10-09T12:27:09;10.60;94.60
21778;DHT22;11050;52.222;20.916;2023-10-09T12:29:37;10.60;95.00
21778;DHT22;11050;52.222;20.916;2023-10-09T12:32:03;10.60;95.00
21778;DHT22;11050;52.222;20.916;2023-10-09T12:34:31;10.60;95.10
21778;DHT22;11050;52.222;20.916;2023-10-09T12:36:57;10.60;95.10
21778;DHT22;11050;52.222;20.916;2023-10-09T12:39:29;10.70;95.30
21778;DHT22;11050;52.222;20.916;2023-10-09T12:42:06;10.60;95.50
21778;DHT22;11050;52.222;20.916;2023-10-09T12:44:35;10.60;95.70
21778;DHT22;11050;52.222;20.916;2023-10-09T12:47:05;10.60;95.90
21778;DHT22;11050;52.222;20.916;2023-10-09T12:49:32;10.60;96.00
21778;DHT22;11050;52.222;20.916;2023-10-09T12:51:58;10.60;96.40
21778;DHT22;11050;52.222;20.916;2023-10-09T12:54:27;10.60;96.60
21778;DHT22;11050;52.222;20.916;2023-10-09T12:56:54;10.50;97.00
21778;DHT22;11050;52.222;20.916;2023-10-09T12:59:20;10.50;97.00
21778;DHT22;11050;52.222;20.916;2023-10-09T13:01:48;10.50;97.40
21778;DHT22;11050;52.222;20.916;2023-10-09T13:04:18;10.50;97.50
21778;DHT22;11050;52.222;20.916;2023-10-09T13:06:48;10.50;97.60
21778;DHT22;11050;52.222;20.916;2023-10-09T13:09:19;10.50;97.70
21778;DHT22;11050;52.222;20.916;2023-10-09T13:12:00;10.60;97.90
21778;DHT22;11050;52.222;20.916;2023-10-09T13:14:27;10.50;97.90
21778;DHT22;11050;52.222;20.916;2023-10-09T13:16:53;10.50;98.20
21778;DHT22;11050;52.222;20.916;2023-10-09T13:19:19;10.50;98.40
21778;DHT22;11050;52.222;20.916;2023-10-09T13:21:45;10.40;98.60
21778;DHT22;11050;52.222;20.916;2023-10-09T13:24:11;10.40;98.90
21778;DHT22;11050;52.222;20.916;2023-10-09T13:26:45;10.40;98.70
21778;DHT22;11050;52.222;20.916;2023-10-09T13:29:13;10.40;98.90
21778;DHT22;11050;52.222;20.916;2023-10-09T13:31:40;10.40;99.00
21778;DHT22;11050;52.222;20.916;2023-10-09T13:34:12;10.30;99.10
21778;DHT22;11050;52.222;20.916;2023-10-09T13:36:43;10.30;99.40
21778;DHT22;11050;52.222;20.916;2023-10-09T13:39:18;10.20;99.60
21778;DHT22;11050;52.222;20.916;2023-10-09T13:41:49;10.20;99.70
21778;DHT22;11050;52.222;20.916;2023-10-09T13:44:32;10.20;99.90
21778;DHT22;11050;52.222;20.916;2023-10-09T13:47:00;10.10;99.90
21778;DHT22;11050;52.222;20.916;2023-10-09T13:49:30;10.10;99.90
21778;DHT22;11050;52.222;20.916;2023-10-09T13:51:58;10.10;99.90
21778;DHT22;11050;52.222;20.916;2023-10-09T13:54:26;10.10;99.90
21778;DHT22;11050;52.222;20.916;2023-10-09T13:57:05;10.10;99.90
21778;DHT22;11050;52.222;20.916;2023-10-09T13:59:32;10.20;99.90
21778;DHT22;11050;52.222;20.916;2023-10-09T14:02:00;10.30;99.90
21778;DHT22;11050;52.222;20.916;2023-10-09T14:04:28;10.40;99.90
21778;DHT22;11050;52.222;20.916;2023-10-09T14:06:54;10.40;99.90
21778;DHT22;11050;52.222;20.916;2023-10-09T14:09:25;10.50;99.90
21778;DHT22;11050;52.222;20.916;2023-10-09T14:12:05;10.40;99.90
21778;DHT22;11050;52.222;20.916;2023-10-09T14:14:45;10.50;99.90
21778;DHT22;11050;52.222;20.916;2023-10-09T14:19:52;10.60;99.90
21778;DHT22;11050;52.222;20.916;2023-10-09T14:22:20;10.60;99.90
21778;DHT22;11050;52.222;20.916;2023-10-09T14:24:50;10.50;99.90
21778;DHT22;11050;52.222;20.916;2023-10-09T14:27:23;10.50;99.90
21778;DHT22;11050;52.222;20.916;2023-10-09T14:29:53;10.40;99.90
21778;DHT22;11050;52.222;20.916;2023-10-09T14:32:25;10.40;99.90
21778;DHT22;11050;52.222;20.916;2023-10-09T14:34:57;10.60;99.90
21778;DHT22;11050;52.222;20.916;2023-10-09T14:37:38;10.90;99.90
21778;DHT22;11050;52.222;20.916;2023-10-09T14:40:07;11.50;99.90
21778;DHT22;11050;52.222;20.916;2023-10-09T14:42:39;12.00;99.90
21778;DHT22;11050;52.222;20.916;2023-10-09T14:45:10;12.70;99.80
21778;DHT22;11050;52.222;20.916;2023-10-09T14:47:41;13.20;98.20
21778;DHT22;11050;52.222;20.916;2023-10-09T14:50:07;13.60;96.60
21778;DHT22;11050;52.222;20.916;2023-10-09T14:52:35;13.90;95.70
21778;DHT22;11050;52.222;20.916;2023-10-09T14:55:07;14.00;95.00
21778;DHT22;11050;52.222;20.916;2023-10-09T14:57:35;13.90;94.20
21778;DHT22;11050;52.222;20.916;2023-10-09T15:00:01;13.80;94.30
21778;DHT22;11050;52.222;20.916;2023-10-09T15:02:33;13.60;94.50
21778;DHT22;11050;52.222;20.916;2023-10-09T15:04:59;13.60;94.70
21778;DHT22;11050;52.222;20.916;2023-10-09T15:07:25;13.60;94.80
21778;DHT22;11050;52.222;20.916;2023-10-09T15:09:50;13.60;94.90
21778;DHT22;11050;52.222;20.916;2023-10-09T15:12:16;13.70;94.70
21778;DHT22;11050;52.222;20.916;2023-10-09T15:14:42;13.70;94.60
21778;DHT22;11050;52.222;20.916;2023-10-09T15:17:10;13.60;94.40
21778;DHT22;11050;52.222;20.916;2023-10-09T15:19:36;13.50;94.40
21778;DHT22;11050;52.222;20.916;2023-10-09T15:22:02;13.40;94.50
21778;DHT22;11050;52.222;20.916;2023-10-09T15:24:33;13.40;94.70
21778;DHT22;11050;52.222;20.916;2023-10-09T15:26:59;13.30;94.80
21778;DHT22;11050;52.222;20.916;2023-10-09T15:29:26;13.10;95.10
21778;DHT22;11050;52.222;20.916;2023-10-09T15:31:57;13.00;95.30
21778;DHT22;11050;52.222;20.916;2023-10-09T15:34:36;12.80;95.70
21778;DHT22;11050;52.222;20.916;2023-10-09T15:37:02;12.60;95.90
21778;DHT22;11050;52.222;20.916;2023-10-09T15:39:35;12.40;96.10
21778;DHT22;11050;52.222;20.916;2023-10-09T15:42:01;12.20;96.40
21778;DHT22;11050;52.222;20.916;2023-10-09T15:44:32;11.90;96.60
21778;DHT22;11050;52.222;20.916;2023-10-09T15:47:04;11.60;97.30
21778;DHT22;11050;52.222;20.916;2023-10-09T15:49:34;11.30;98.20
21778;DHT22;11050;52.222;20.916;2023-10-09T15:52:06;11.00;98.40
21778;DHT22;11050;52.222;20.916;2023-10-09T15:54:34;10.80;99.10
21778;DHT22;11050;52.222;20.916;2023-10-09T15:57:00;10.60;99.30
21778;DHT22;11050;52.222;20.916;2023-10-09T15:59:26;10.40;99.90
21778;DHT22;11050;52.222;20.916;2023-10-09T16:01:51;10.20;99.90
21778;DHT22;11050;52.222;20.916;2023-10-09T16:04:18;10.00;99.90
21778;DHT22;11050;52.222;20.916;2023-10-09T16:06:44;9.80;99.90
21778;DHT22;11050;52.222;20.916;2023-10-09T16:09:10;9.70;99.90
21778;DHT22;11050;52.222;20.916;2023-10-09T16:11:40;9.50;99.90
21778;DHT22;11050;52.222;20.916;2023-10-09T16:14:06;9.40;99.90
21778;DHT22;11050;52.222;20.916;2023-10-09T16:16:35;9.20;99.90
21778;DHT22;11050;52.222;20.916;2023-10-09T16:19:08;9.00;99.90